createdAt,value
2023-02-11T00:00:48.779Z,0.29
2023-02-11T00:03:27.064Z,0.26
2023-02-11T00:06:16.393Z,0.24
2023-02-11T00:09:05.530Z,0.23
2023-02-11T00:11:54.280Z,0.20
2023-02-11T00:14:42.955Z,0.19
2023-02-11T00:17:32.402Z,0.16
2023-02-11T00:20:07.903Z,0.14
2023-02-11T00:22:56.852Z,0.11
2023-02-11T00:25:46.039Z,0.08
2023-02-11T00:28:34.708Z,0.04
2023-02-11T00:31:24.355Z,-0.00
2023-02-11T00:34:13.819Z,-0.01
2023-02-11T00:37:02.725Z,-0.07
2023-02-11T00:39:51.367Z,-0.17
2023-02-11T00:42:40.321Z,-0.25
2023-02-11T00:45:30.029Z,-0.26
2023-02-11T00:48:18.735Z,-0.33
2023-02-11T00:51:07.724Z,-0.42
2023-02-11T00:53:56.299Z,-0.53
2023-02-11T00:56:44.916Z,-0.61
2023-02-11T00:59:33.494Z,-0.68
2023-02-11T01:02:22.166Z,-0.71
2023-02-11T01:05:11.233Z,-0.72
2023-02-11T01:07:59.877Z,-0.81
2023-02-11T01:10:55.682Z,-0.79
2023-02-11T01:13:44.895Z,-0.62
2023-02-11T01:16:16.424Z,-0.59
2023-02-11T01:19:05.132Z,-0.59
2023-02-11T01:21:53.771Z,-0.57
2023-02-11T01:24:42.362Z,-0.55
2023-02-11T01:27:31.013Z,-0.62
2023-02-11T01:30:19.760Z,-0.56
2023-02-11T01:33:08.429Z,-0.50
2023-02-11T01:36:02.335Z,-0.41
2023-02-11T01:38:50.949Z,-0.34
2023-02-11T01:41:39.937Z,-0.29
2023-02-11T01:44:30.377Z,-0.26
2023-02-11T01:47:19.635Z,-0.23
2023-02-11T01:50:08.587Z,-0.21
2023-02-11T01:53:18.513Z,-0.25
2023-02-11T01:56:26.300Z,-0.25
2023-02-11T01:59:20.352Z,-0.25
2023-02-11T02:02:10.601Z,-0.22
2023-02-11T02:05:06.785Z,-0.20
2023-02-11T02:08:05.180Z,-0.20
2023-02-11T02:10:55.776Z,-0.20
2023-02-11T02:13:35.760Z,-0.24
2023-02-11T02:16:30.364Z,-0.31
2023-02-11T02:20:21.945Z,-0.39
2023-02-11T02:23:35.264Z,-0.58
2023-02-11T02:26:59.265Z,-0.63
2023-02-11T02:30:22.578Z,-0.68
2023-02-11T02:33:45.460Z,-0.71
2023-02-11T02:36:44.161Z,-0.75
2023-02-11T02:39:36.067Z,-0.72
2023-02-11T02:42:26.320Z,-0.70
2023-02-11T02:45:00.458Z,-0.56
2023-02-11T02:47:49.205Z,-0.48
2023-02-11T02:50:38.502Z,-0.46
2023-02-11T02:53:40.244Z,-0.44
2023-02-11T02:56:32.010Z,-0.38
2023-02-11T02:59:35.477Z,-0.31
2023-02-11T03:02:31.698Z,-0.25
2023-02-11T03:05:30.341Z,-0.18
2023-02-11T03:08:26.633Z,-0.13
2023-02-11T03:11:19.076Z,-0.07
2023-02-11T03:14:10.969Z,-0.07
2023-02-11T03:16:48.713Z,-0.02
2023-02-11T03:19:26.623Z,0.04
2023-02-11T03:22:20.825Z,0.09
2023-02-11T03:25:10.012Z,0.12
2023-02-11T03:27:43.890Z,0.15
2023-02-11T03:30:35.199Z,0.17
2023-02-11T03:33:28.538Z,0.16
2023-02-11T03:36:23.686Z,0.15
2023-02-11T03:39:15.828Z,0.15
2023-02-11T03:42:06.819Z,0.18
2023-02-11T03:45:03.710Z,0.21
2023-02-11T03:47:56.434Z,0.24
2023-02-11T03:50:47.089Z,0.26
2023-02-11T03:53:38.483Z,0.27
2023-02-11T03:56:31.709Z,0.29
2023-02-11T03:59:20.795Z,0.28
2023-02-11T04:02:09.602Z,0.28
2023-02-11T04:04:58.814Z,0.31
2023-02-11T04:07:47.429Z,0.33
2023-02-11T04:10:36.059Z,0.29
2023-02-11T04:13:26.371Z,0.27
2023-02-11T04:16:15.053Z,0.26
2023-02-11T04:19:03.903Z,0.22
2023-02-11T04:21:52.512Z,0.22
2023-02-11T04:24:43.272Z,0.25
2023-02-11T04:27:32.428Z,0.25
2023-02-11T04:30:21.585Z,0.25
2023-02-11T04:33:10.276Z,0.25
2023-02-11T04:35:58.947Z,0.24
2023-02-11T04:38:47.746Z,0.24
2023-02-11T04:41:36.408Z,0.24
2023-02-11T04:44:25.322Z,0.27
2023-02-11T04:47:15.062Z,0.29
2023-02-11T04:50:03.921Z,0.30
2023-02-11T04:52:52.584Z,0.32
2023-02-11T04:55:41.204Z,0.31
2023-02-11T04:58:30.092Z,0.34
2023-02-11T05:01:18.853Z,0.38
2023-02-11T05:04:07.627Z,0.40
2023-02-11T05:06:58.576Z,0.43
2023-02-11T05:09:47.318Z,0.45
2023-02-11T05:12:35.900Z,0.45
2023-02-11T05:15:24.584Z,0.45
2023-02-11T05:18:14.214Z,0.46
2023-02-11T05:21:07.809Z,0.49
2023-02-11T05:23:56.553Z,0.52
2023-02-11T05:26:45.118Z,0.56
2023-02-11T05:29:33.716Z,0.61
2023-02-11T05:32:22.313Z,0.65
2023-02-11T05:35:10.913Z,0.67
2023-02-11T05:37:59.555Z,0.66
2023-02-11T05:40:48.173Z,0.69
2023-02-11T05:43:37.261Z,0.71
2023-02-11T05:46:25.899Z,0.70
2023-02-11T05:49:15.740Z,0.71
2023-02-11T05:52:04.924Z,0.72
2023-02-11T05:54:53.568Z,0.72
2023-02-11T05:57:42.206Z,0.73
2023-02-11T06:00:30.921Z,0.73
2023-02-11T06:03:03.560Z,0.70
2023-02-11T06:05:52.430Z,0.68
2023-02-11T06:08:42.257Z,0.63
2023-02-11T06:11:30.878Z,0.63
2023-02-11T06:14:19.626Z,0.60
2023-02-11T06:17:08.266Z,0.62
2023-02-11T06:19:56.948Z,0.60
2023-02-11T06:22:45.772Z,0.61
2023-02-11T06:25:34.449Z,0.60
2023-02-11T06:28:23.197Z,0.57
2023-02-11T06:31:07.246Z,0.54
2023-02-11T06:33:55.948Z,0.55
2023-02-11T06:36:24.596Z,0.59
2023-02-11T06:39:13.907Z,0.61
2023-02-11T06:41:42.294Z,0.60
2023-02-11T06:44:31.299Z,0.63
2023-02-11T06:47:20.017Z,0.65
2023-02-11T06:49:57.456Z,0.68
2023-02-11T06:52:46.174Z,0.68
2023-02-11T06:55:36.018Z,0.70
2023-02-11T06:58:24.700Z,0.75
2023-02-11T07:00:53.309Z,0.80
2023-02-11T07:03:44.386Z,0.80
2023-02-11T07:06:33.357Z,0.85
2023-02-11T07:09:10.962Z,0.86
2023-02-11T07:11:59.830Z,0.88
2023-02-11T07:14:37.388Z,0.89
2023-02-11T07:17:26.527Z,0.90
2023-02-11T07:20:16.344Z,0.93
2023-02-11T07:23:05.165Z,0.93
2023-02-11T07:25:53.851Z,0.94
2023-02-11T07:28:31.843Z,0.96
2023-02-11T07:31:22.891Z,1.01
2023-02-11T07:34:11.590Z,1.02
2023-02-11T07:37:00.629Z,1.07
2023-02-11T07:39:49.380Z,1.13
2023-02-11T07:42:39.946Z,1.19
2023-02-11T07:45:28.552Z,1.30
2023-02-11T07:48:17.234Z,1.41
2023-02-11T07:51:10.982Z,1.65
2023-02-11T07:54:00.952Z,2.05
2023-02-11T07:56:49.596Z,2.34
2023-02-11T07:59:38.293Z,2.73
2023-02-11T08:02:27.250Z,2.98
2023-02-11T08:05:00.928Z,3.04
2023-02-11T08:07:53.094Z,3.32
2023-02-11T08:10:41.736Z,3.52
2023-02-11T08:13:30.407Z,3.49
2023-02-11T08:16:20.570Z,3.39
2023-02-11T08:18:50.282Z,3.38
2023-02-11T08:21:39.868Z,3.35
2023-02-11T08:24:28.508Z,3.26
2023-02-11T08:27:17.213Z,3.20
2023-02-11T08:30:08.252Z,3.11
2023-02-11T08:32:56.869Z,3.03
2023-02-11T08:35:45.503Z,2.99
2023-02-11T08:38:34.143Z,3.03
2023-02-11T08:41:22.921Z,3.05
2023-02-11T08:44:12.340Z,3.07
2023-02-11T08:47:00.935Z,3.03
2023-02-11T08:49:49.511Z,3.04
2023-02-11T08:52:38.112Z,3.05
2023-02-11T08:55:26.740Z,3.03
2023-02-11T08:58:16.990Z,2.97
2023-02-11T09:01:11.877Z,2.94
2023-02-11T09:04:00.777Z,2.99
2023-02-11T09:06:49.376Z,3.01
2023-02-11T09:09:37.998Z,3.00
2023-02-11T09:12:26.647Z,3.02
2023-02-11T09:15:15.260Z,3.04
2023-02-11T09:18:05.053Z,3.06
2023-02-11T09:20:53.774Z,3.06
2023-02-11T09:23:44.131Z,3.07
2023-02-11T09:26:34.312Z,3.10
2023-02-11T09:29:23.227Z,3.06
2023-02-11T09:32:12.015Z,3.05
2023-02-11T09:35:00.741Z,3.09
2023-02-11T09:37:49.346Z,3.09
2023-02-11T09:40:43.545Z,3.14
2023-02-11T09:43:36.108Z,3.14
2023-02-11T09:46:27.129Z,3.16
2023-02-11T09:49:21.563Z,3.19
2023-02-11T09:52:23.218Z,3.27
2023-02-11T09:55:20.922Z,3.35
2023-02-11T09:58:14.141Z,3.39
2023-02-11T10:01:13.903Z,3.39
2023-02-11T10:04:07.107Z,3.38
2023-02-11T10:07:01.372Z,3.43
2023-02-11T10:09:57.258Z,3.51
2023-02-11T10:13:00.808Z,3.53
2023-02-11T10:15:57.488Z,3.60
2023-02-11T10:19:21.936Z,3.66
2023-02-11T10:22:19.144Z,3.65
2023-02-11T10:25:20.146Z,3.69
2023-02-11T10:28:14.665Z,3.74
2023-02-11T10:31:07.972Z,3.77
2023-02-11T10:34:02.480Z,3.93
2023-02-11T10:36:33.581Z,4.13
2023-02-11T10:39:23.832Z,4.22
2023-02-11T10:42:14.330Z,4.34
2023-02-11T10:45:00.187Z,4.43
2023-02-11T10:47:48.932Z,4.60
2023-02-11T10:50:37.689Z,4.75
2023-02-11T10:53:26.472Z,4.88
2023-02-11T10:56:24.165Z,4.96
2023-02-11T10:59:21.678Z,5.04
2023-02-11T11:02:23.058Z,5.06
2023-02-11T11:05:19.642Z,5.06
2023-02-11T11:08:09.329Z,5.05
2023-02-11T11:10:43.160Z,4.95
2023-02-11T11:13:33.840Z,4.81
2023-02-11T11:16:25.325Z,4.74
2023-02-11T11:19:22.244Z,4.67
2023-02-11T11:22:21.773Z,4.60
2023-02-11T11:25:23.604Z,4.56
2023-02-11T11:28:22.237Z,4.54
2023-02-11T11:31:17.360Z,4.50
2023-02-11T11:34:20.543Z,4.52
2023-02-11T11:37:13.454Z,4.48
2023-02-11T11:40:11.072Z,4.46
2023-02-11T11:43:21.316Z,4.43
2023-02-11T11:46:30.075Z,4.39
2023-02-11T11:49:27.701Z,4.36
2023-02-11T11:52:26.225Z,4.30
2023-02-11T11:55:20.586Z,4.27
2023-02-11T11:58:15.522Z,4.24
2023-02-11T12:01:21.230Z,4.21
2023-02-11T12:04:40.203Z,4.20
2023-02-11T12:07:46.010Z,4.21
2023-02-11T12:10:54.700Z,4.18
2023-02-11T12:14:00.536Z,4.15
2023-02-11T12:16:58.324Z,4.19
2023-02-11T12:20:17.406Z,4.19
2023-02-11T12:23:24.236Z,4.16
2023-02-11T12:26:17.540Z,4.15
2023-02-11T12:29:15.673Z,4.07
2023-02-11T12:32:15.442Z,4.01
2023-02-11T12:35:06.748Z,3.93
2023-02-11T12:38:19.667Z,3.90
2023-02-11T12:41:42.673Z,3.80
2023-02-11T12:44:40.509Z,3.66
2023-02-11T12:47:41.236Z,3.56
2023-02-11T12:50:29.733Z,3.51
2023-02-11T12:53:31.243Z,3.51
2023-02-11T12:56:26.510Z,3.49
2023-02-11T12:59:02.924Z,3.52
2023-02-11T13:01:53.609Z,3.52
2023-02-11T13:04:49.813Z,3.52
2023-02-11T13:07:43.560Z,3.56
2023-02-11T13:10:35.880Z,3.57
2023-02-11T13:13:30.099Z,3.57
2023-02-11T13:16:22.407Z,3.55
2023-02-11T13:19:21.481Z,3.51
2023-02-11T13:22:17.199Z,3.47
2023-02-11T13:25:16.903Z,3.42
2023-02-11T13:28:20.204Z,3.35
2023-02-11T13:31:12.270Z,3.35
2023-02-11T13:34:01.149Z,3.30
2023-02-11T13:36:56.616Z,3.32
2023-02-11T13:39:57.031Z,3.36
2023-02-11T13:42:51.718Z,3.40
2023-02-11T13:45:47.048Z,3.51
2023-02-11T13:48:38.291Z,3.57
2023-02-11T13:51:39.030Z,3.59
2023-02-11T13:54:23.342Z,3.63
2023-02-11T13:57:37.563Z,3.64
2023-02-11T14:00:52.382Z,3.67
2023-02-11T14:04:37.358Z,3.70
2023-02-11T14:07:47.594Z,3.75
2023-02-11T14:10:54.120Z,3.77
2023-02-11T14:13:27.298Z,3.74
2023-02-11T14:16:31.654Z,3.69
2023-02-11T14:19:32.043Z,3.69
2023-02-11T14:22:26.312Z,3.63
2023-02-11T14:25:22.659Z,3.59
2023-02-11T14:28:22.356Z,3.56
2023-02-11T14:31:03.391Z,3.55
2023-02-11T14:34:17.230Z,3.56
2023-02-11T14:37:22.339Z,3.65
2023-02-11T14:40:23.054Z,3.68
2023-02-11T14:43:09.426Z,3.71
2023-02-11T14:46:07.413Z,3.68
2023-02-11T14:49:02.156Z,3.69
2023-02-11T14:51:53.754Z,3.71
2023-02-11T14:54:44.700Z,3.72
2023-02-11T14:57:33.476Z,3.72
2023-02-11T15:00:23.597Z,3.68
2023-02-11T15:03:26.716Z,3.60
2023-02-11T15:06:19.741Z,3.55
2023-02-11T15:09:17.763Z,3.50
2023-02-11T15:12:17.315Z,3.50
2023-02-11T15:15:12.387Z,3.52
2023-02-11T15:18:04.414Z,3.47
2023-02-11T15:20:53.946Z,3.44
2023-02-11T15:24:01.579Z,3.39
2023-02-11T15:26:30.489Z,3.36
2023-02-11T15:29:19.172Z,3.46
2023-02-11T15:32:14.746Z,3.48
2023-02-11T15:35:04.769Z,3.48
2023-02-11T15:37:53.755Z,3.50
2023-02-11T15:40:53.688Z,3.51
2023-02-11T15:43:22.633Z,3.54
2023-02-11T15:46:16.173Z,3.56
2023-02-11T15:49:05.808Z,3.50
2023-02-11T15:51:56.856Z,3.48
2023-02-11T15:54:47.894Z,3.47
2023-02-11T15:57:36.737Z,3.45
2023-02-11T16:00:31.851Z,3.45
2023-02-11T16:03:00.558Z,3.43
2023-02-11T16:05:49.416Z,3.38
2023-02-11T16:08:32.164Z,3.32
2023-02-11T16:11:26.322Z,3.28
2023-02-11T16:14:01.642Z,3.25
2023-02-11T16:16:53.695Z,3.21
2023-02-11T16:19:46.006Z,3.18
2023-02-11T16:22:37.510Z,3.19
2023-02-11T16:25:26.384Z,3.18
2023-02-11T16:28:17.139Z,3.24
2023-02-11T16:30:51.265Z,3.25
2023-02-11T16:33:20.655Z,3.27
2023-02-11T16:36:13.577Z,3.23
2023-02-11T16:38:47.469Z,3.18
2023-02-11T16:41:36.630Z,3.20
2023-02-11T16:44:25.483Z,3.27
2023-02-11T16:47:20.268Z,3.29
2023-02-11T16:50:11.989Z,3.31
2023-02-11T16:53:01.685Z,3.29
2023-02-11T16:55:34.929Z,3.25
2023-02-11T16:58:23.759Z,3.20
2023-02-11T17:01:14.094Z,3.17
2023-02-11T17:04:03.262Z,3.15
2023-02-11T17:06:41.793Z,3.16
2023-02-11T17:09:20.002Z,3.18
2023-02-11T17:12:08.942Z,3.29
2023-02-11T17:14:41.582Z,3.31
2023-02-11T17:17:30.447Z,3.34
2023-02-11T17:20:02.235Z,3.41
2023-02-11T17:22:30.855Z,3.47
2023-02-11T17:25:19.756Z,3.56
2023-02-11T17:28:09.580Z,3.61
2023-02-11T17:30:58.535Z,3.63
2023-02-11T17:33:37.790Z,3.66
2023-02-11T17:36:27.166Z,3.69
2023-02-11T17:39:16.019Z,3.72
2023-02-11T17:42:05.767Z,3.72
2023-02-11T17:44:34.701Z,3.69
2023-02-11T17:47:23.455Z,3.68
2023-02-11T17:50:12.459Z,3.63
2023-02-11T17:53:01.388Z,3.59
2023-02-11T17:55:50.694Z,3.58
2023-02-11T17:58:19.462Z,3.53
2023-02-11T18:01:08.273Z,3.52
2023-02-11T18:03:57.136Z,3.52
2023-02-11T18:06:46.367Z,3.52
2023-02-11T18:09:38.541Z,3.62
2023-02-11T18:12:27.507Z,3.66
2023-02-11T18:15:16.817Z,3.68
2023-02-11T18:17:45.412Z,3.73
2023-02-11T18:20:14.567Z,3.80
2023-02-11T18:22:43.544Z,3.88
2023-02-11T18:25:14.653Z,3.94
2023-02-11T18:27:46.176Z,3.95
2023-02-11T18:30:20.031Z,3.95
2023-02-11T18:32:52.555Z,3.97
2023-02-11T18:35:29.933Z,3.96
2023-02-11T18:38:04.264Z,3.95
2023-02-11T18:40:45.922Z,3.96
2023-02-11T18:43:34.614Z,3.96
2023-02-11T18:46:23.224Z,3.95
2023-02-11T18:49:12.602Z,3.94
2023-02-11T18:52:01.347Z,3.91
2023-02-11T18:54:51.869Z,3.91
2023-02-11T18:57:40.723Z,3.92
2023-02-11T19:00:30.414Z,4.00
2023-02-11T19:03:19.393Z,4.02
2023-02-11T19:06:14.963Z,4.06
2023-02-11T19:09:07.198Z,4.13
2023-02-11T19:11:57.381Z,4.18
2023-02-11T19:14:46.362Z,4.26
2023-02-11T19:17:20.096Z,4.30
2023-02-11T19:20:10.732Z,4.32
2023-02-11T19:22:59.864Z,4.36
2023-02-11T19:25:48.769Z,4.35
2023-02-11T19:28:39.552Z,4.32
2023-02-11T19:31:31.790Z,4.32
2023-02-11T19:34:21.684Z,4.30
2023-02-11T19:37:12.065Z,4.29
2023-02-11T19:40:00.698Z,4.28
2023-02-11T19:42:49.300Z,4.26
2023-02-11T19:45:38.448Z,4.24
2023-02-11T19:48:27.427Z,4.25
2023-02-11T19:51:17.649Z,4.33
2023-02-11T19:54:07.785Z,4.35
2023-02-11T19:56:56.781Z,4.41
2023-02-11T19:59:45.372Z,4.46
2023-02-11T20:02:34.244Z,4.55
2023-02-11T20:05:23.207Z,4.58
2023-02-11T20:08:11.828Z,4.60
2023-02-11T20:11:06.987Z,4.58
2023-02-11T20:13:43.614Z,4.60
2023-02-11T20:16:16.033Z,4.59
2023-02-11T20:18:49.210Z,4.59
2023-02-11T20:21:38.704Z,4.57
2023-02-11T20:24:27.607Z,4.53
2023-02-11T20:27:19.056Z,4.50
2023-02-11T20:30:11.267Z,4.47
2023-02-11T20:33:00.180Z,4.48
2023-02-11T20:35:55.954Z,4.57
2023-02-11T20:38:47.520Z,4.60
2023-02-11T20:41:32.059Z,4.64
2023-02-11T20:44:21.861Z,4.66
2023-02-11T20:47:11.612Z,4.71
2023-02-11T20:50:00.362Z,4.80
2023-02-11T20:52:48.922Z,4.85
2023-02-11T20:55:39.003Z,4.87
2023-02-11T20:58:27.596Z,4.87
2023-02-11T21:01:19.842Z,4.87
2023-02-11T21:04:12.170Z,4.86
2023-02-11T21:07:02.125Z,4.82
2023-02-11T21:09:50.726Z,4.80
2023-02-11T21:12:39.353Z,4.79
2023-02-11T21:15:28.146Z,4.75
2023-02-11T21:18:17.019Z,4.71
2023-02-11T21:21:07.111Z,4.68
2023-02-11T21:23:44.632Z,4.69
2023-02-11T21:26:34.653Z,4.77
2023-02-11T21:29:23.368Z,4.78
2023-02-11T21:32:12.051Z,4.81
2023-02-11T21:35:02.402Z,4.85
2023-02-11T21:37:51.168Z,4.91
2023-02-11T21:40:40.015Z,4.99
2023-02-11T21:43:28.622Z,5.03
2023-02-11T21:46:19.098Z,5.00
2023-02-11T21:49:07.986Z,5.03
2023-02-11T21:51:56.631Z,5.03
2023-02-11T21:54:34.505Z,4.98
2023-02-11T21:57:23.382Z,4.95
2023-02-11T22:00:15.555Z,4.94
2023-02-11T22:03:04.649Z,4.92
2023-02-11T22:05:43.627Z,4.89
2023-02-11T22:08:32.264Z,4.87
2023-02-11T22:11:21.498Z,4.84
2023-02-11T22:14:10.058Z,4.85
2023-02-11T22:16:50.140Z,4.92
2023-02-11T22:19:38.966Z,4.94
2023-02-11T22:22:28.531Z,4.96
2023-02-11T22:25:17.729Z,5.01
2023-02-11T22:28:06.387Z,5.05
2023-02-11T22:30:56.002Z,5.10
2023-02-11T22:33:28.326Z,5.15
2023-02-11T22:36:19.774Z,5.15
2023-02-11T22:39:11.746Z,5.16
2023-02-11T22:42:00.391Z,5.18
2023-02-11T22:44:49.029Z,5.17
2023-02-11T22:47:38.235Z,5.14
2023-02-11T22:50:26.944Z,5.12
2023-02-11T22:53:15.594Z,5.08
2023-02-11T22:56:06.682Z,5.05
2023-02-11T22:58:58.488Z,5.02
2023-02-11T23:01:47.941Z,4.99
2023-02-11T23:04:36.614Z,4.99
2023-02-11T23:07:25.279Z,5.08
2023-02-11T23:10:13.791Z,5.10
2023-02-11T23:13:03.241Z,5.14
2023-02-11T23:15:51.844Z,5.20
2023-02-11T23:18:42.029Z,5.25
2023-02-11T23:21:22.943Z,5.28
2023-02-11T23:24:14.056Z,5.29
2023-02-11T23:27:02.920Z,5.29
2023-02-11T23:29:54.907Z,5.29
2023-02-11T23:32:43.510Z,5.26
2023-02-11T23:35:32.104Z,5.23
2023-02-11T23:38:20.797Z,5.22
2023-02-11T23:41:10.163Z,5.18
2023-02-11T23:43:58.868Z,5.15
2023-02-11T23:46:47.434Z,5.11
2023-02-11T23:49:36.072Z,5.09
2023-02-11T23:52:24.696Z,5.08
2023-02-11T23:55:13.278Z,5.14
2023-02-11T23:58:01.845Z,5.18
